sensor_id;sensor_type;location;lat;lon;timestamp;temperature;humidity
68378;DHT22;55322;48.146;11.516;2023-12-29T00:00:00;8.20;74.23
68378;DHT22;55322;48.146;11.516;2023-12-29T00:02:26;8.14;74.38
68378;DHT22;55322;48.146;11.516;2023-12-29T00:04:51;8.24;74.71
68378;DHT22;55322;48.146;11.516;2023-12-29T00:07:16;8.14;74.70
68378;DHT22;55322;48.146;11.516;2023-12-29T00:09:42;8.11;75.33
68378;DHT22;55322;48.146;11.516;2023-12-29T00:12:07;8.07;75.49
68378;DHT22;55322;48.146;11.516;2023-12-29T00:14:36;7.90;75.78
68378;DHT22;55322;48.146;11.516;2023-12-29T00:17:03;8.00;76.07
68378;DHT22;55322;48.146;11.516;2023-12-29T00:19:28;8.03;76.18
68378;DHT22;55322;48.146;11.516;2023-12-29T00:21:53;8.00;76.15
68378;DHT22;55322;48.146;11.516;2023-12-29T00:24:19;7.93;76.40
68378;DHT22;55322;48.146;11.516;2023-12-29T00:26:45;7.82;76.58
68378;DHT22;55322;48.146;11.516;2023-12-29T00:29:10;7.86;76.63
68378;DHT22;55322;48.146;11.516;2023-12-29T00:31:35;7.84;76.64
68378;DHT22;55322;48.146;11.516;2023-12-29T00:34:01;7.73;76.97
68378;DHT22;55322;48.146;11.516;2023-12-29T00:36:26;7.67;77.07
68378;DHT22;55322;48.146;11.516;2023-12-29T00:38:51;7.59;77.19
68378;DHT22;55322;48.146;11.516;2023-12-29T00:41:17;7.59;77.27
68378;DHT22;55322;48.146;11.516;2023-12-29T00:43:42;7.69;76.98
68378;DHT22;55322;48.146;11.516;2023-12-29T00:46:08;7.79;76.42
68378;DHT22;55322;48.146;11.516;2023-12-29T00:48:34;7.66;76.74
68378;DHT22;55322;48.146;11.516;2023-12-29T00:51:03;7.53;76.93
68378;DHT22;55322;48.146;11.516;2023-12-29T00:53:29;7.62;76.70
68378;DHT22;55322;48.146;11.516;2023-12-29T00:55:57;7.56;76.79
68378;DHT22;55322;48.146;11.516;2023-12-29T00:58:22;7.43;77.00
68378;DHT22;55322;48.146;11.516;2023-12-29T01:00:48;7.39;77.32
68378;DHT22;55322;48.146;11.516;2023-12-29T01:03:13;7.28;77.48
68378;DHT22;55322;48.146;11.516;2023-12-29T01:05:39;7.25;77.65
68378;DHT22;55322;48.146;11.516;2023-12-29T01:08:04;7.16;77.61
68378;DHT22;55322;48.146;11.516;2023-12-29T01:10:29;7.11;77.93
68378;DHT22;55322;48.146;11.516;2023-12-29T01:12:55;7.07;78.09
68378;DHT22;55322;48.146;11.516;2023-12-29T01:15:20;7.05;78.12
68378;DHT22;55322;48.146;11.516;2023-12-29T01:17:45;7.07;78.10
68378;DHT22;55322;48.146;11.516;2023-12-29T01:20:11;7.11;77.77
68378;DHT22;55322;48.146;11.516;2023-12-29T01:22:36;7.05;77.66
68378;DHT22;55322;48.146;11.516;2023-12-29T01:25:02;6.98;77.98
68378;DHT22;55322;48.146;11.516;2023-12-29T01:27:28;7.01;77.82
68378;DHT22;55322;48.146;11.516;2023-12-29T01:29:54;6.99;77.67
68378;DHT22;55322;48.146;11.516;2023-12-29T01:32:19;7.09;77.33
68378;DHT22;55322;48.146;11.516;2023-12-29T01:34:45;7.18;76.84
68378;DHT22;55322;48.146;11.516;2023-12-29T01:37:10;7.12;76.86
68378;DHT22;55322;48.146;11.516;2023-12-29T01:39:36;7.05;76.99
68378;DHT22;55322;48.146;11.516;2023-12-29T01:42:01;7.18;76.56
68378;DHT22;55322;48.146;11.516;2023-12-29T01:44:26;7.16;76.27
68378;DHT22;55322;48.146;11.516;2023-12-29T01:46:58;7.18;76.23
68378;DHT22;55322;48.146;11.516;2023-12-29T01:49:24;7.11;76.45
68378;DHT22;55322;48.146;11.516;2023-12-29T01:52:00;6.99;76.51
68378;DHT22;55322;48.146;11.516;2023-12-29T01:54:28;6.85;76.75
68378;DHT22;55322;48.146;11.516;2023-12-29T01:56:57;6.75;77.16
68378;DHT22;55322;48.146;11.516;2023-12-29T01:59:25;6.68;77.36
68378;DHT22;55322;48.146;11.516;2023-12-29T02:01:50;6.63;77.35
68378;DHT22;55322;48.146;11.516;2023-12-29T02:04:17;6.50;77.63
68378;DHT22;55322;48.146;11.516;2023-12-29T02:06:43;6.41;77.87
68378;DHT22;55322;48.146;11.516;2023-12-29T02:09:08;6.30;77.60
68378;DHT22;55322;48.146;11.516;2023-12-29T02:11:34;6.36;77.42
68378;DHT22;55322;48.146;11.516;2023-12-29T02:14:00;6.36;77.18
68378;DHT22;55322;48.146;11.516;2023-12-29T02:16:35;6.41;76.27
68378;DHT22;55322;48.146;11.516;2023-12-29T02:19:13;6.53;75.62
68378;DHT22;55322;48.146;11.516;2023-12-29T02:21:41;6.54;75.24
68378;DHT22;55322;48.146;11.516;2023-12-29T02:24:06;6.65;74.34
68378;DHT22;55322;48.146;11.516;2023-12-29T02:26:34;6.67;74.27
68378;DHT22;55322;48.146;11.516;2023-12-29T02:29:02;6.68;74.07
68378;DHT22;55322;48.146;11.516;2023-12-29T02:31:30;6.70;73.77
68378;DHT22;55322;48.146;11.516;2023-12-29T02:33:57;6.70;73.70
68378;DHT22;55322;48.146;11.516;2023-12-29T02:36:24;6.73;73.58
68378;DHT22;55322;48.146;11.516;2023-12-29T02:38:50;6.71;73.26
68378;DHT22;55322;48.146;11.516;2023-12-29T02:41:15;6.68;73.41
68378;DHT22;55322;48.146;11.516;2023-12-29T02:43:41;6.81;72.48
68378;DHT22;55322;48.146;11.516;2023-12-29T02:46:06;6.89;72.44
68378;DHT22;55322;48.146;11.516;2023-12-29T02:48:31;6.94;72.24
68378;DHT22;55322;48.146;11.516;2023-12-29T02:50:57;6.87;72.00
68378;DHT22;55322;48.146;11.516;2023-12-29T02:53:22;6.83;72.07
68378;DHT22;55322;48.146;11.516;2023-12-29T02:55:47;6.75;72.42
68378;DHT22;55322;48.146;11.516;2023-12-29T02:58:13;6.67;72.76
68378;DHT22;55322;48.146;11.516;2023-12-29T03:00:38;6.64;72.72
68378;DHT22;55322;48.146;11.516;2023-12-29T03:03:04;6.61;72.70
68378;DHT22;55322;48.146;11.516;2023-12-29T03:05:29;6.57;72.67
68378;DHT22;55322;48.146;11.516;2023-12-29T03:07:54;6.51;73.30
68378;DHT22;55322;48.146;11.516;2023-12-29T03:10:20;6.47;73.52
68378;DHT22;55322;48.146;11.516;2023-12-29T03:12:45;6.38;73.51
68378;DHT22;55322;48.146;11.516;2023-12-29T03:15:11;6.37;73.59
68378;DHT22;55322;48.146;11.516;2023-12-29T03:17:36;6.37;73.42
68378;DHT22;55322;48.146;11.516;2023-12-29T03:20:04;6.47;72.39
68378;DHT22;55322;48.146;11.516;2023-12-29T03:22:30;6.50;71.88
68378;DHT22;55322;48.146;11.516;2023-12-29T03:24:56;6.50;72.49
68378;DHT22;55322;48.146;11.516;2023-12-29T03:27:21;6.43;72.31
68378;DHT22;55322;48.146;11.516;2023-12-29T03:29:47;6.43;71.54
68378;DHT22;55322;48.146;11.516;2023-12-29T03:32:12;6.38;72.35
68378;DHT22;55322;48.146;11.516;2023-12-29T03:34:37;6.26;72.90
68378;DHT22;55322;48.146;11.516;2023-12-29T03:37:03;6.16;72.75
68378;DHT22;55322;48.146;11.516;2023-12-29T03:39:28;6.09;72.20
68378;DHT22;55322;48.146;11.516;2023-12-29T03:41:55;6.06;72.23
68378;DHT22;55322;48.146;11.516;2023-12-29T03:44:20;6.13;71.71
68378;DHT22;55322;48.146;11.516;2023-12-29T03:46:45;6.10;72.27
68378;DHT22;55322;48.146;11.516;2023-12-29T03:49:11;6.06;71.98
68378;DHT22;55322;48.146;11.516;2023-12-29T03:51:37;6.06;71.67
68378;DHT22;55322;48.146;11.516;2023-12-29T03:54:02;6.07;71.83
68378;DHT22;55322;48.146;11.516;2023-12-29T03:56:28;6.13;71.95
68378;DHT22;55322;48.146;11.516;2023-12-29T03:58:54;6.26;71.55
68378;DHT22;55322;48.146;11.516;2023-12-29T04:01:19;6.40;70.15
68378;DHT22;55322;48.146;11.516;2023-12-29T04:03:47;6.70;69.23
68378;DHT22;55322;48.146;11.516;2023-12-29T04:06:13;6.88;68.63
68378;DHT22;55322;48.146;11.516;2023-12-29T04:08:38;7.14;68.20
68378;DHT22;55322;48.146;11.516;2023-12-29T04:11:04;7.25;67.62
68378;DHT22;55322;48.146;11.516;2023-12-29T04:13:30;7.50;66.79
68378;DHT22;55322;48.146;11.516;2023-12-29T04:15:56;7.63;66.49
68378;DHT22;55322;48.146;11.516;2023-12-29T04:18:23;7.67;66.07
68378;DHT22;55322;48.146;11.516;2023-12-29T04:20:49;7.72;66.04
68378;DHT22;55322;48.146;11.516;2023-12-29T04:23:14;7.86;65.65
68378;DHT22;55322;48.146;11.516;2023-12-29T04:25:40;7.87;65.82
68378;DHT22;55322;48.146;11.516;2023-12-29T04:28:06;7.90;65.86
68378;DHT22;55322;48.146;11.516;2023-12-29T04:30:33;8.00;65.07
68378;DHT22;55322;48.146;11.516;2023-12-29T04:32:58;7.97;65.54
68378;DHT22;55322;48.146;11.516;2023-12-29T04:35:23;8.00;65.50
68378;DHT22;55322;48.146;11.516;2023-12-29T04:37:49;8.01;65.22
68378;DHT22;55322;48.146;11.516;2023-12-29T04:40:15;8.03;65.50
68378;DHT22;55322;48.146;11.516;2023-12-29T04:42:40;8.05;65.28
68378;DHT22;55322;48.146;11.516;2023-12-29T04:45:06;8.13;64.41
68378;DHT22;55322;48.146;11.516;2023-12-29T04:47:32;8.21;64.68
68378;DHT22;55322;48.146;11.516;2023-12-29T04:49:58;8.21;64.88
68378;DHT22;55322;48.146;11.516;2023-12-29T04:52:23;8.23;64.98
68378;DHT22;55322;48.146;11.516;2023-12-29T04:54:49;8.27;64.65
68378;DHT22;55322;48.146;11.516;2023-12-29T04:57:14;8.37;65.25
68378;DHT22;55322;48.146;11.516;2023-12-29T04:59:39;8.37;65.07
68378;DHT22;55322;48.146;11.516;2023-12-29T05:02:05;8.41;65.22
68378;DHT22;55322;48.146;11.516;2023-12-29T05:04:31;8.41;65.61
68378;DHT22;55322;48.146;11.516;2023-12-29T05:06:56;8.44;65.47
68378;DHT22;55322;48.146;11.516;2023-12-29T05:09:21;8.44;65.24
68378;DHT22;55322;48.146;11.516;2023-12-29T05:11:47;8.42;65.66
68378;DHT22;55322;48.146;11.516;2023-12-29T05:14:13;8.52;65.27
68378;DHT22;55322;48.146;11.516;2023-12-29T05:16:38;8.55;65.84
68378;DHT22;55322;48.146;11.516;2023-12-29T05:19:03;8.52;65.98
68378;DHT22;55322;48.146;11.516;2023-12-29T05:21:29;8.51;66.04
68378;DHT22;55322;48.146;11.516;2023-12-29T05:23:54;8.55;65.46
68378;DHT22;55322;48.146;11.516;2023-12-29T05:26:20;8.55;65.85
68378;DHT22;55322;48.146;11.516;2023-12-29T05:28:45;8.54;66.00
68378;DHT22;55322;48.146;11.516;2023-12-29T05:31:10;8.52;66.29
68378;DHT22;55322;48.146;11.516;2023-12-29T05:33:36;8.57;66.16
68378;DHT22;55322;48.146;11.516;2023-12-29T05:36:09;8.61;65.90
68378;DHT22;55322;48.146;11.516;2023-12-29T05:38:35;8.57;66.54
68378;DHT22;55322;48.146;11.516;2023-12-29T05:41:01;8.55;66.31
68378;DHT22;55322;48.146;11.516;2023-12-29T05:43:28;8.51;66.57
68378;DHT22;55322;48.146;11.516;2023-12-29T05:45:54;8.47;66.43
68378;DHT22;55322;48.146;11.516;2023-12-29T05:48:19;8.38;66.71
68378;DHT22;55322;48.146;11.516;2023-12-29T05:50:44;8.33;67.00
68378;DHT22;55322;48.146;11.516;2023-12-29T05:53:10;8.30;67.16
68378;DHT22;55322;48.146;11.516;2023-12-29T05:55:35;8.33;67.15
68378;DHT22;55322;48.146;11.516;2023-12-29T05:58:01;8.40;67.02
68378;DHT22;55322;48.146;11.516;2023-12-29T06:00:26;8.48;66.95
68378;DHT22;55322;48.146;11.516;2023-12-29T06:02:52;8.49;66.90
68378;DHT22;55322;48.146;11.516;2023-12-29T06:05:17;8.49;66.42
68378;DHT22;55322;48.146;11.516;2023-12-29T06:07:42;8.47;66.73
68378;DHT22;55322;48.146;11.516;2023-12-29T06:10:08;8.38;67.27
68378;DHT22;55322;48.146;11.516;2023-12-29T06:12:34;8.37;67.34
68378;DHT22;55322;48.146;11.516;2023-12-29T06:15:00;8.37;67.44
68378;DHT22;55322;48.146;11.516;2023-12-29T06:17:26;8.41;67.07
68378;DHT22;55322;48.146;11.516;2023-12-29T06:19:51;8.45;66.97
68378;DHT22;55322;48.146;11.516;2023-12-29T06:22:16;8.45;67.00
68378;DHT22;55322;48.146;11.516;2023-12-29T06:24:42;8.47;66.58
68378;DHT22;55322;48.146;11.516;2023-12-29T06:27:11;8.58;65.90
68378;DHT22;55322;48.146;11.516;2023-12-29T06:29:36;8.51;66.37
68378;DHT22;55322;48.146;11.516;2023-12-29T06:32:03;8.48;66.23
68378;DHT22;55322;48.146;11.516;2023-12-29T06:34:29;8.44;66.06
68378;DHT22;55322;48.146;11.516;2023-12-29T06:36:54;8.38;66.33
68378;DHT22;55322;48.146;11.516;2023-12-29T06:39:19;8.40;66.68
68378;DHT22;55322;48.146;11.516;2023-12-29T06:41:45;8.33;66.31
68378;DHT22;55322;48.146;11.516;2023-12-29T06:44:10;8.33;66.52
68378;DHT22;55322;48.146;11.516;2023-12-29T06:46:39;8.33;66.43
68378;DHT22;55322;48.146;11.516;2023-12-29T06:49:06;8.33;66.43
68378;DHT22;55322;48.146;11.516;2023-12-29T06:51:31;8.28;66.93
68378;DHT22;55322;48.146;11.516;2023-12-29T06:53:56;8.24;67.41
68378;DHT22;55322;48.146;11.516;2023-12-29T06:56:22;8.38;67.18
68378;DHT22;55322;48.146;11.516;2023-12-29T06:58:47;8.48;67.09
68378;DHT22;55322;48.146;11.516;2023-12-29T07:01:13;8.59;66.77
68378;DHT22;55322;48.146;11.516;2023-12-29T07:03:39;8.67;67.03
68378;DHT22;55322;48.146;11.516;2023-12-29T07:06:05;8.67;66.83
68378;DHT22;55322;48.146;11.516;2023-12-29T07:08:30;8.62;67.15
68378;DHT22;55322;48.146;11.516;2023-12-29T07:10:55;8.62;67.51
68378;DHT22;55322;48.146;11.516;2023-12-29T07:13:21;8.61;67.77
68378;DHT22;55322;48.146;11.516;2023-12-29T07:15:47;8.67;67.92
68378;DHT22;55322;48.146;11.516;2023-12-29T07:18:13;8.73;67.91
68378;DHT22;55322;48.146;11.516;2023-12-29T07:20:38;8.78;68.20
68378;DHT22;55322;48.146;11.516;2023-12-29T07:23:04;8.79;68.52
68378;DHT22;55322;48.146;11.516;2023-12-29T07:25:30;8.85;68.86
68378;DHT22;55322;48.146;11.516;2023-12-29T07:27:55;9.00;68.90
68378;DHT22;55322;48.146;11.516;2023-12-29T07:30:21;8.98;69.32
68378;DHT22;55322;48.146;11.516;2023-12-29T07:32:46;8.98;69.71
68378;DHT22;55322;48.146;11.516;2023-12-29T07:35:12;8.98;70.36
68378;DHT22;55322;48.146;11.516;2023-12-29T07:37:41;8.99;70.32
68378;DHT22;55322;48.146;11.516;2023-12-29T07:40:07;8.99;71.03
68378;DHT22;55322;48.146;11.516;2023-12-29T07:42:35;9.00;71.16
68378;DHT22;55322;48.146;11.516;2023-12-29T07:45:00;9.03;71.49
68378;DHT22;55322;48.146;11.516;2023-12-29T07:47:26;8.96;72.09
68378;DHT22;55322;48.146;11.516;2023-12-29T07:49:51;8.96;72.20
68378;DHT22;55322;48.146;11.516;2023-12-29T07:52:16;9.00;72.28
68378;DHT22;55322;48.146;11.516;2023-12-29T07:54:42;8.96;72.76
68378;DHT22;55322;48.146;11.516;2023-12-29T07:57:07;9.00;72.94
68378;DHT22;55322;48.146;11.516;2023-12-29T07:59:33;8.99;73.24
68378;DHT22;55322;48.146;11.516;2023-12-29T08:01:58;9.06;73.31
68378;DHT22;55322;48.146;11.516;2023-12-29T08:04:24;9.03;73.37
68378;DHT22;55322;48.146;11.516;2023-12-29T08:06:49;9.03;73.45
68378;DHT22;55322;48.146;11.516;2023-12-29T08:09:14;9.02;73.63
68378;DHT22;55322;48.146;11.516;2023-12-29T08:11:40;9.10;73.57
68378;DHT22;55322;48.146;11.516;2023-12-29T08:14:08;9.16;73.66
68378;DHT22;55322;48.146;11.516;2023-12-29T08:16:40;9.18;73.40
68378;DHT22;55322;48.146;11.516;2023-12-29T08:19:06;9.22;73.31
68378;DHT22;55322;48.146;11.516;2023-12-29T08:21:32;9.20;73.38
68378;DHT22;55322;48.146;11.516;2023-12-29T08:23:58;9.16;73.29
68378;DHT22;55322;48.146;11.516;2023-12-29T08:26:23;9.18;73.34
68378;DHT22;55322;48.146;11.516;2023-12-29T08:28:48;9.18;73.42
68378;DHT22;55322;48.146;11.516;2023-12-29T08:31:15;9.27;73.01
68378;DHT22;55322;48.146;11.516;2023-12-29T08:33:40;9.29;73.16
68378;DHT22;55322;48.146;11.516;2023-12-29T08:36:06;9.32;73.38
68378;DHT22;55322;48.146;11.516;2023-12-29T08:38:31;9.34;73.12
68378;DHT22;55322;48.146;11.516;2023-12-29T08:40:57;9.37;73.00
68378;DHT22;55322;48.146;11.516;2023-12-29T08:43:23;9.37;73.12
68378;DHT22;55322;48.146;11.516;2023-12-29T08:45:48;9.47;72.65
68378;DHT22;55322;48.146;11.516;2023-12-29T08:48:13;9.47;72.52
68378;DHT22;55322;48.146;11.516;2023-12-29T08:50:39;9.42;72.40
68378;DHT22;55322;48.146;11.516;2023-12-29T08:53:04;9.40;72.66
68378;DHT22;55322;48.146;11.516;2023-12-29T08:55:30;9.44;72.43
68378;DHT22;55322;48.146;11.516;2023-12-29T08:57:57;9.44;72.47
68378;DHT22;55322;48.146;11.516;2023-12-29T09:00:22;9.47;72.51
68378;DHT22;55322;48.146;11.516;2023-12-29T09:02:48;9.60;71.84
68378;DHT22;55322;48.146;11.516;2023-12-29T09:05:13;9.63;72.29
68378;DHT22;55322;48.146;11.516;2023-12-29T09:07:38;9.84;71.27
68378;DHT22;55322;48.146;11.516;2023-12-29T09:10:04;9.85;70.92
68378;DHT22;55322;48.146;11.516;2023-12-29T09:12:36;9.90;70.81
68378;DHT22;55322;48.146;11.516;2023-12-29T09:15:02;9.94;71.04
68378;DHT22;55322;48.146;11.516;2023-12-29T09:17:28;9.97;70.97
68378;DHT22;55322;48.146;11.516;2023-12-29T09:19:53;10.01;71.34
68378;DHT22;55322;48.146;11.516;2023-12-29T09:22:19;10.09;71.05
68378;DHT22;55322;48.146;11.516;2023-12-29T09:24:45;10.08;70.99
68378;DHT22;55322;48.146;11.516;2023-12-29T09:27:10;10.09;70.86
68378;DHT22;55322;48.146;11.516;2023-12-29T09:29:36;10.05;71.66
68378;DHT22;55322;48.146;11.516;2023-12-29T09:32:02;10.08;70.97
68378;DHT22;55322;48.146;11.516;2023-12-29T09:34:27;10.07;71.32
68378;DHT22;55322;48.146;11.516;2023-12-29T09:36:52;10.04;71.42
68378;DHT22;55322;48.146;11.516;2023-12-29T09:39:18;10.02;71.60
68378;DHT22;55322;48.146;11.516;2023-12-29T09:41:46;10.02;71.10
68378;DHT22;55322;48.146;11.516;2023-12-29T09:44:13;10.05;71.13
68378;DHT22;55322;48.146;11.516;2023-12-29T09:46:41;10.05;71.11
68378;DHT22;55322;48.146;11.516;2023-12-29T09:49:08;10.17;70.80
68378;DHT22;55322;48.146;11.516;2023-12-29T09:51:35;10.22;71.12
68378;DHT22;55322;48.146;11.516;2023-12-29T09:54:01;10.25;70.73
68378;DHT22;55322;48.146;11.516;2023-12-29T09:56:27;10.32;70.80
68378;DHT22;55322;48.146;11.516;2023-12-29T09:58:54;10.42;70.66
68378;DHT22;55322;48.146;11.516;2023-12-29T10:01:21;10.42;70.38
68378;DHT22;55322;48.146;11.516;2023-12-29T10:03:47;10.41;70.53
68378;DHT22;55322;48.146;11.516;2023-12-29T10:06:23;10.44;70.70
68378;DHT22;55322;48.146;11.516;2023-12-29T10:08:50;10.52;70.59
68378;DHT22;55322;48.146;11.516;2023-12-29T10:11:18;10.60;70.51
68378;DHT22;55322;48.146;11.516;2023-12-29T10:13:45;10.63;70.92
68378;DHT22;55322;48.146;11.516;2023-12-29T10:16:35;10.76;70.90
68378;DHT22;55322;48.146;11.516;2023-12-29T10:24:21;10.69;71.46
68378;DHT22;55322;48.146;11.516;2023-12-29T10:26:47;10.66;71.79
68378;DHT22;55322;48.146;11.516;2023-12-29T10:29:12;10.65;72.18
68378;DHT22;55322;48.146;11.516;2023-12-29T10:31:38;10.66;72.53
68378;DHT22;55322;48.146;11.516;2023-12-29T10:34:23;10.66;72.68
68378;DHT22;55322;48.146;11.516;2023-12-29T10:36:58;10.73;72.74
68378;DHT22;55322;48.146;11.516;2023-12-29T10:39:24;10.86;72.16
68378;DHT22;55322;48.146;11.516;2023-12-29T10:41:58;10.90;72.30
68378;DHT22;55322;48.146;11.516;2023-12-29T10:44:27;11.02;71.94
68378;DHT22;55322;48.146;11.516;2023-12-29T10:46:52;11.04;71.79
68378;DHT22;55322;48.146;11.516;2023-12-29T10:49:18;11.02;71.60
68378;DHT22;55322;48.146;11.516;2023-12-29T10:51:43;11.16;71.63
68378;DHT22;55322;48.146;11.516;2023-12-29T10:54:19;11.20;71.31
68378;DHT22;55322;48.146;11.516;2023-12-29T10:56:44;11.22;71.35
68378;DHT22;55322;48.146;11.516;2023-12-29T10:59:12;11.17;71.34
68378;DHT22;55322;48.146;11.516;2023-12-29T11:01:37;11.19;71.33
68378;DHT22;55322;48.146;11.516;2023-12-29T11:04:04;11.20;71.37
68378;DHT22;55322;48.146;11.516;2023-12-29T11:06:40;11.12;71.40
68378;DHT22;55322;48.146;11.516;2023-12-29T11:09:05;11.19;71.22
68378;DHT22;55322;48.146;11.516;2023-12-29T11:11:31;11.27;71.12
68378;DHT22;55322;48.146;11.516;2023-12-29T11:13:57;11.26;71.16
68378;DHT22;55322;48.146;11.516;2023-12-29T11:16:24;11.40;70.60
68378;DHT22;55322;48.146;11.516;2023-12-29T11:18:50;11.44;70.32
68378;DHT22;55322;48.146;11.516;2023-12-29T11:21:16;11.45;70.25
68378;DHT22;55322;48.146;11.516;2023-12-29T11:23:42;11.60;69.91
68378;DHT22;55322;48.146;11.516;2023-12-29T11:26:08;11.63;70.01
68378;DHT22;55322;48.146;11.516;2023-12-29T11:28:33;11.60;69.71
68378;DHT22;55322;48.146;11.516;2023-12-29T11:30:59;11.67;69.77
68378;DHT22;55322;48.146;11.516;2023-12-29T11:33:34;11.67;69.59
68378;DHT22;55322;48.146;11.516;2023-12-29T11:36:10;11.70;69.66
68378;DHT22;55322;48.146;11.516;2023-12-29T11:38:44;11.74;69.71
68378;DHT22;55322;48.146;11.516;2023-12-29T11:41:25;11.78;69.16
68378;DHT22;55322;48.146;11.516;2023-12-29T11:46:42;11.94;69.14
68378;DHT22;55322;48.146;11.516;2023-12-29T11:49:08;11.98;68.62
68378;DHT22;55322;48.146;11.516;2023-12-29T11:51:41;11.98;68.93
68378;DHT22;55322;48.146;11.516;2023-12-29T11:54:08;12.04;68.64
68378;DHT22;55322;48.146;11.516;2023-12-29T11:56:37;12.11;68.09
68378;DHT22;55322;48.146;11.516;2023-12-29T11:59:14;12.17;68.00
68378;DHT22;55322;48.146;11.516;2023-12-29T12:01:41;12.12;68.19
68378;DHT22;55322;48.146;11.516;2023-12-29T12:12:44;12.04;68.01
68378;DHT22;55322;48.146;11.516;2023-12-29T12:17:54;11.98;68.04
68378;DHT22;55322;48.146;11.516;2023-12-29T12:20:20;11.94;68.16
68378;DHT22;55322;48.146;11.516;2023-12-29T12:22:49;11.95;68.25
68378;DHT22;55322;48.146;11.516;2023-12-29T12:25:15;11.89;68.40
68378;DHT22;55322;48.146;11.516;2023-12-29T12:27:41;11.89;68.71
68378;DHT22;55322;48.146;11.516;2023-12-29T12:30:07;11.82;68.60
68378;DHT22;55322;48.146;11.516;2023-12-29T12:32:35;11.74;68.53
68378;DHT22;55322;48.146;11.516;2023-12-29T12:35:00;11.73;68.76
68378;DHT22;55322;48.146;11.516;2023-12-29T12:37:29;11.73;68.46
68378;DHT22;55322;48.146;11.516;2023-12-29T12:39:55;11.77;68.55
68378;DHT22;55322;48.146;11.516;2023-12-29T12:42:22;11.70;68.33
68378;DHT22;55322;48.146;11.516;2023-12-29T12:45:11;11.60;68.31
68378;DHT22;55322;48.146;11.516;2023-12-29T12:47:44;11.55;68.64
68378;DHT22;55322;48.146;11.516;2023-12-29T12:50:11;11.54;68.62
68378;DHT22;55322;48.146;11.516;2023-12-29T12:52:37;11.53;68.70
68378;DHT22;55322;48.146;11.516;2023-12-29T12:55:05;11.54;69.17
68378;DHT22;55322;48.146;11.516;2023-12-29T12:57:31;11.53;69.28
68378;DHT22;55322;48.146;11.516;2023-12-29T12:59:59;11.45;68.62
68378;DHT22;55322;48.146;11.516;2023-12-29T13:02:25;11.45;68.69
68378;DHT22;55322;48.146;11.516;2023-12-29T13:04:51;11.45;68.81
68378;DHT22;55322;48.146;11.516;2023-12-29T13:07:18;11.45;68.50
68378;DHT22;55322;48.146;11.516;2023-12-29T13:09:45;11.48;68.41
68378;DHT22;55322;48.146;11.516;2023-12-29T13:12:12;11.38;68.19
68378;DHT22;55322;48.146;11.516;2023-12-29T13:14:38;11.43;67.92
68378;DHT22;55322;48.146;11.516;2023-12-29T13:17:08;11.43;68.71
68378;DHT22;55322;48.146;11.516;2023-12-29T13:19:34;11.33;68.38
68378;DHT22;55322;48.146;11.516;2023-12-29T13:22:00;11.30;68.09
68378;DHT22;55322;48.146;11.516;2023-12-29T13:24:26;11.27;68.29
68378;DHT22;55322;48.146;11.516;2023-12-29T13:26:58;11.24;68.30
68378;DHT22;55322;48.146;11.516;2023-12-29T13:29:27;11.22;68.24
68378;DHT22;55322;48.146;11.516;2023-12-29T13:32:00;11.24;68.40
68378;DHT22;55322;48.146;11.516;2023-12-29T13:37:14;11.13;69.21
68378;DHT22;55322;48.146;11.516;2023-12-29T13:40:03;11.09;68.91
68378;DHT22;55322;48.146;11.516;2023-12-29T13:42:36;11.02;68.90
68378;DHT22;55322;48.146;11.516;2023-12-29T13:45:04;11.04;68.40
68378;DHT22;55322;48.146;11.516;2023-12-29T13:47:31;10.99;68.38
68378;DHT22;55322;48.146;11.516;2023-12-29T13:49:57;11.00;68.84
68378;DHT22;55322;48.146;11.516;2023-12-29T13:52:28;11.00;68.29
68378;DHT22;55322;48.146;11.516;2023-12-29T13:54:54;10.95;68.61
68378;DHT22;55322;48.146;11.516;2023-12-29T13:57:32;10.93;69.06
68378;DHT22;55322;48.146;11.516;2023-12-29T14:00:19;10.80;68.12
68378;DHT22;55322;48.146;11.516;2023-12-29T14:02:57;10.76;68.18
68378;DHT22;55322;48.146;11.516;2023-12-29T14:05:36;10.79;67.20
68378;DHT22;55322;48.146;11.516;2023-12-29T14:10:30;10.75;67.53
68378;DHT22;55322;48.146;11.516;2023-12-29T14:15:39;10.69;67.71
68378;DHT22;55322;48.146;11.516;2023-12-29T14:21:31;10.60;68.38
68378;DHT22;55322;48.146;11.516;2023-12-29T14:24:01;10.53;68.64
68378;DHT22;55322;48.146;11.516;2023-12-29T14:26:28;10.50;68.49
68378;DHT22;55322;48.146;11.516;2023-12-29T14:29:04;10.53;68.72
68378;DHT22;55322;48.146;11.516;2023-12-29T14:31:41;10.55;68.68
68378;DHT22;55322;48.146;11.516;2023-12-29T14:34:08;10.49;68.91
68378;DHT22;55322;48.146;11.516;2023-12-29T14:36:34;10.46;69.08
68378;DHT22;55322;48.146;11.516;2023-12-29T14:39:00;10.44;69.29
68378;DHT22;55322;48.146;11.516;2023-12-29T14:41:26;10.41;69.37
68378;DHT22;55322;48.146;11.516;2023-12-29T14:43:52;10.34;69.83
68378;DHT22;55322;48.146;11.516;2023-12-29T14:46:17;10.34;69.50
68378;DHT22;55322;48.146;11.516;2023-12-29T14:48:43;10.39;69.59
68378;DHT22;55322;48.146;11.516;2023-12-29T14:51:09;10.32;69.87
68378;DHT22;55322;48.146;11.516;2023-12-29T14:53:34;10.27;70.19
68378;DHT22;55322;48.146;11.516;2023-12-29T14:56:00;10.19;70.20
68378;DHT22;55322;48.146;11.516;2023-12-29T14:58:25;10.17;70.53
68378;DHT22;55322;48.146;11.516;2023-12-29T15:00:51;10.09;70.49
68378;DHT22;55322;48.146;11.516;2023-12-29T15:03:16;10.09;70.82
68378;DHT22;55322;48.146;11.516;2023-12-29T15:05:43;10.04;71.06
68378;DHT22;55322;48.146;11.516;2023-12-29T15:08:08;9.98;71.22
68378;DHT22;55322;48.146;11.516;2023-12-29T15:10:34;9.91;71.49
68378;DHT22;55322;48.146;11.516;2023-12-29T15:13:01;9.85;71.74
68378;DHT22;55322;48.146;11.516;2023-12-29T15:15:26;9.97;71.61
68378;DHT22;55322;48.146;11.516;2023-12-29T15:17:52;9.91;71.40
68378;DHT22;55322;48.146;11.516;2023-12-29T15:20:17;9.87;71.70
68378;DHT22;55322;48.146;11.516;2023-12-29T15:22:42;9.81;71.97
68378;DHT22;55322;48.146;11.516;2023-12-29T15:25:09;9.74;72.14
68378;DHT22;55322;48.146;11.516;2023-12-29T15:27:34;9.71;72.17
68378;DHT22;55322;48.146;11.516;2023-12-29T15:30:00;9.69;72.19
68378;DHT22;55322;48.146;11.516;2023-12-29T15:32:25;9.70;72.02
68378;DHT22;55322;48.146;11.516;2023-12-29T15:34:51;9.64;72.36
68378;DHT22;55322;48.146;11.516;2023-12-29T15:37:16;9.64;72.25
68378;DHT22;55322;48.146;11.516;2023-12-29T15:39:43;9.70;72.02
68378;DHT22;55322;48.146;11.516;2023-12-29T15:42:09;9.69;71.93
68378;DHT22;55322;48.146;11.516;2023-12-29T15:44:34;9.65;72.04
68378;DHT22;55322;48.146;11.516;2023-12-29T15:47:00;9.63;71.76
68378;DHT22;55322;48.146;11.516;2023-12-29T15:49:25;9.57;72.12
68378;DHT22;55322;48.146;11.516;2023-12-29T15:51:50;9.44;72.54